sensor_id;sensor_type;location;lat;lon;timestamp;pressure;altitude;pressure_sealevel;temperature;humidity
27425;BME280;15244;49.088;11.886;2024-02-15T00:03:46;96267.56;;;10.21;55.79
27425;BME280;15244;49.088;11.886;2024-02-15T00:08:48;96270.28;;;10.21;55.76
27425;BME280;15244;49.088;11.886;2024-02-15T00:13:51;96271.84;;;10.22;55.87
27425;BME280;15244;49.088;11.886;2024-02-15T00:18:53;96270.72;;;10.23;55.51
27425;BME280;15244;49.088;11.886;2024-02-15T00:23:57;96269.56;;;10.24;55.91
27425;BME280;15244;49.088;11.886;2024-02-15T00:29:01;96267.59;;;10.25;55.98
27425;BME280;15244;49.088;11.886;2024-02-15T00:34:03;96262.94;;;10.25;55.89
27425;BME280;15244;49.088;11.886;2024-02-15T00:39:05;96265.31;;;10.27;56.06
27425;BME280;15244;49.088;11.886;2024-02-15T00:44:11;96254.41;;;10.27;55.71
27425;BME280;15244;49.088;11.886;2024-02-15T00:49:13;96255.19;;;10.27;56.01
27425;BME280;15244;49.088;11.886;2024-02-15T00:54:15;96252.84;;;10.26;56.02
27425;BME280;15244;49.088;11.886;2024-02-15T00:59:18;96262.94;;;10.25;55.82
27425;BME280;15244;49.088;11.886;2024-02-15T01:04:20;96267.59;;;10.25;56.35
27425;BME280;15244;49.088;11.886;2024-02-15T01:09:22;96261.38;;;10.24;56.32
27425;BME280;15244;49.088;11.886;2024-02-15T01:14:24;96253.97;;;10.25;56.35
27425;BME280;15244;49.088;11.886;2024-02-15T01:19:25;96246.97;;;10.24;56.49
27425;BME280;15244;49.088;11.886;2024-02-15T01:24:27;96255.56;;;10.26;56.30
27425;BME280;15244;49.088;11.886;2024-02-15T01:29:29;96248.16;;;10.26;56.73
27425;BME280;15244;49.088;11.886;2024-02-15T01:34:31;96242.00;;;10.29;56.68
27425;BME280;15244;49.088;11.886;2024-02-15T01:39:34;96242.44;;;10.31;57.00
27425;BME280;15244;49.088;11.886;2024-02-15T01:44:35;96243.25;;;10.35;56.62
27425;BME280;15244;49.088;11.886;2024-02-15T01:49:38;96235.91;;;10.39;56.71
27425;BME280;15244;49.088;11.886;2024-02-15T01:54:40;96243.00;;;10.44;56.82
27425;BME280;15244;49.088;11.886;2024-02-15T01:59:42;96230.56;;;10.47;57.04
27425;BME280;15244;49.088;11.886;2024-02-15T02:04:45;96235.66;;;10.48;57.09
27425;BME280;15244;49.088;11.886;2024-02-15T02:09:47;96231.75;;;10.49;57.00
27425;BME280;15244;49.088;11.886;2024-02-15T02:14:49;96230.22;;;10.52;57.18
27425;BME280;15244;49.088;11.886;2024-02-15T02:19:51;96231.44;;;10.54;57.51
27425;BME280;15244;49.088;11.886;2024-02-15T02:30:12;96233.41;;;10.57;57.20
27425;BME280;15244;49.088;11.886;2024-02-15T02:35:16;96229.16;;;10.60;57.27
27425;BME280;15244;49.088;11.886;2024-02-15T02:40:19;96223.38;;;10.65;57.18
27425;BME280;15244;49.088;11.886;2024-02-15T02:45:20;96217.91;;;10.65;57.02
27425;BME280;15244;49.088;11.886;2024-02-15T02:50:24;96224.56;;;10.68;57.41
27425;BME280;15244;49.088;11.886;2024-02-15T02:55:27;96218.75;;;10.69;57.14
27425;BME280;15244;49.088;11.886;2024-02-15T03:00:29;96228.50;;;10.70;57.36
27425;BME280;15244;49.088;11.886;2024-02-15T03:05:31;96216.44;;;10.71;57.85
27425;BME280;15244;49.088;11.886;2024-02-15T03:10:33;96226.59;;;10.74;57.54
27425;BME280;15244;49.088;11.886;2024-02-15T03:15:35;96226.22;;;10.76;57.61
27425;BME280;15244;49.088;11.886;2024-02-15T03:20:37;96235.59;;;10.78;57.52
27425;BME280;15244;49.088;11.886;2024-02-15T03:25:39;96232.16;;;10.81;57.62
27425;BME280;15244;49.088;11.886;2024-02-15T03:30:41;96236.84;;;10.84;57.78
27425;BME280;15244;49.088;11.886;2024-02-15T03:35:44;96237.28;;;10.87;57.69
27425;BME280;15244;49.088;11.886;2024-02-15T03:40:46;96239.63;;;10.88;57.46
27425;BME280;15244;49.088;11.886;2024-02-15T03:45:47;96245.84;;;10.89;58.17
27425;BME280;15244;49.088;11.886;2024-02-15T03:50:49;96229.13;;;10.90;57.43
27425;BME280;15244;49.088;11.886;2024-02-15T03:55:51;96232.25;;;10.92;58.09
27425;BME280;15244;49.088;11.886;2024-02-15T04:00:55;96243.59;;;10.94;57.90
27425;BME280;15244;49.088;11.886;2024-02-15T04:05:58;96236.97;;;10.95;57.84
27425;BME280;15244;49.088;11.886;2024-02-15T04:11:02;96240.91;;;10.98;57.97
27425;BME280;15244;49.088;11.886;2024-02-15T04:16:03;96236.22;;;10.98;57.74
27425;BME280;15244;49.088;11.886;2024-02-15T04:21:06;96227.31;;;11.01;58.03
27425;BME280;15244;49.088;11.886;2024-02-15T04:26:09;96227.69;;;11.03;57.92
27425;BME280;15244;49.088;11.886;2024-02-15T04:31:10;96230.84;;;11.05;57.83
27425;BME280;15244;49.088;11.886;2024-02-15T04:36:13;96225.81;;;11.07;57.84
27425;BME280;15244;49.088;11.886;2024-02-15T04:41:18;96241.41;;;11.11;58.10
27425;BME280;15244;49.088;11.886;2024-02-15T04:46:25;96239.84;;;11.10;58.06
27425;BME280;15244;49.088;11.886;2024-02-15T04:51:26;96228.19;;;11.13;57.81
27425;BME280;15244;49.088;11.886;2024-02-15T04:56:29;96236.41;;;11.16;57.77
27425;BME280;15244;49.088;11.886;2024-02-15T05:01:33;96229.03;;;11.17;57.74
27425;BME280;15244;49.088;11.886;2024-02-15T05:06:35;96230.22;;;11.19;57.90
27425;BME280;15244;49.088;11.886;2024-02-15T05:11:38;96226.69;;;11.19;57.95
27425;BME280;15244;49.088;11.886;2024-02-15T05:16:42;96240.75;;;11.21;57.59
27425;BME280;15244;49.088;11.886;2024-02-15T05:21:45;96231.41;;;11.22;58.07
27425;BME280;15244;49.088;11.886;2024-02-15T05:26:47;96230.59;;;11.21;57.83
27425;BME280;15244;49.088;11.886;2024-02-15T05:31:50;96230.25;;;11.23;57.92
27425;BME280;15244;49.088;11.886;2024-02-15T05:36:53;96224.00;;;11.22;57.85
27425;BME280;15244;49.088;11.886;2024-02-15T05:41:54;96227.16;;;11.24;57.93
27425;BME280;15244;49.088;11.886;2024-02-15T05:47:03;96229.47;;;11.26;57.92
27425;BME280;15244;49.088;11.886;2024-02-15T05:52:05;96225.59;;;11.27;58.20
27425;BME280;15244;49.088;11.886;2024-02-15T05:57:07;96235.00;;;11.30;57.99
27425;BME280;15244;49.088;11.886;2024-02-15T06:02:08;96235.78;;;11.30;57.62
27425;BME280;15244;49.088;11.886;2024-02-15T06:07:10;96234.59;;;11.31;57.60
27425;BME280;15244;49.088;11.886;2024-02-15T06:12:12;96242.00;;;11.31;57.95
27425;BME280;15244;49.088;11.886;2024-02-15T06:17:13;96246.28;;;11.32;57.58
27425;BME280;15244;49.088;11.886;2024-02-15T06:22:15;96237.75;;;11.33;57.66
27425;BME280;15244;49.088;11.886;2024-02-15T06:27:17;96242.84;;;11.35;57.58
27425;BME280;15244;49.088;11.886;2024-02-15T06:32:19;96247.91;;;11.36;57.65
27425;BME280;15244;49.088;11.886;2024-02-15T06:37:56;96249.06;;;11.35;57.42
27425;BME280;15244;49.088;11.886;2024-02-15T06:43:16;96249.84;;;11.36;57.88
27425;BME280;15244;49.088;11.886;2024-02-15T06:48:18;96255.31;;;11.36;57.86
27425;BME280;15244;49.088;11.886;2024-02-15T06:53:20;96256.09;;;11.36;57.62
27425;BME280;15244;49.088;11.886;2024-02-15T06:58:22;96256.50;;;11.35;57.79
27425;BME280;15244;49.088;11.886;2024-02-15T07:03:23;96264.28;;;11.36;57.54
27425;BME280;15244;49.088;11.886;2024-02-15T07:08:25;96261.19;;;11.38;57.53
27425;BME280;15244;49.088;11.886;2024-02-15T07:13:26;96259.25;;;11.38;57.34
27425;BME280;15244;49.088;11.886;2024-02-15T07:18:28;96256.50;;;11.38;57.25
27425;BME280;15244;49.088;11.886;2024-02-15T07:23:30;96253.00;;;11.38;57.51
27425;BME280;15244;49.088;11.886;2024-02-15T07:28:35;96251.47;;;11.40;57.46
27425;BME280;15244;49.088;11.886;2024-02-15T07:33:37;96265.53;;;11.42;57.27
27425;BME280;15244;49.088;11.886;2024-02-15T07:38:40;96265.13;;;11.44;57.32
27425;BME280;15244;49.088;11.886;2024-02-15T07:43:42;96268.69;;;11.44;57.49
27425;BME280;15244;49.088;11.886;2024-02-15T07:48:44;96264.00;;;11.45;57.14
27425;BME280;15244;49.088;11.886;2024-02-15T07:53:49;96262.47;;;11.47;57.48
27425;BME280;15244;49.088;11.886;2024-02-15T07:58:52;96267.94;;;11.51;57.68
27425;BME280;15244;49.088;11.886;2024-02-15T08:03:59;96256.25;;;11.54;57.56
27425;BME280;15244;49.088;11.886;2024-02-15T08:09:00;96255.91;;;11.59;57.25
27425;BME280;15244;49.088;11.886;2024-02-15T08:14:02;96248.97;;;11.65;57.23
27425;BME280;15244;49.088;11.886;2024-02-15T08:19:04;96236.94;;;11.74;57.41
27425;BME280;15244;49.088;11.886;2024-02-15T08:24:09;96245.97;;;11.81;57.97
27425;BME280;15244;49.088;11.886;2024-02-15T08:29:11;96240.19;;;11.90;57.43
27425;BME280;15244;49.088;11.886;2024-02-15T08:34:15;96237.91;;;11.96;57.47
27425;BME280;15244;49.088;11.886;2024-02-15T08:39:20;96237.50;;;11.97;57.25
27425;BME280;15244;49.088;11.886;2024-02-15T08:44:23;96231.69;;;11.99;56.96
27425;BME280;15244;49.088;11.886;2024-02-15T08:49:26;96238.69;;;12.00;57.15
27425;BME280;15244;49.088;11.886;2024-02-15T08:54:32;96236.00;;;12.03;57.18
27425;BME280;15244;49.088;11.886;2024-02-15T08:59:34;96230.19;;;12.08;57.35
27425;BME280;15244;49.088;11.886;2024-02-15T09:04:36;96227.50;;;12.16;57.38
27425;BME280;15244;49.088;11.886;2024-02-15T09:09:38;96226.75;;;12.22;57.51
27425;BME280;15244;49.088;11.886;2024-02-15T09:14:39;96229.88;;;12.28;57.15
27425;BME280;15244;49.088;11.886;2024-02-15T09:19:41;96211.97;;;12.34;57.25
27425;BME280;15244;49.088;11.886;2024-02-15T09:24:43;96211.59;;;12.39;57.05
27425;BME280;15244;49.088;11.886;2024-02-15T09:29:45;96212.44;;;12.47;57.51
27425;BME280;15244;49.088;11.886;2024-02-15T09:34:48;96215.56;;;12.52;57.24
27425;BME280;15244;49.088;11.886;2024-02-15T09:39:49;96204.28;;;12.61;56.97
27425;BME280;15244;49.088;11.886;2024-02-15T09:44:51;96208.22;;;12.67;57.46
27425;BME280;15244;49.088;11.886;2024-02-15T09:49:53;96202.00;;;12.77;57.39
27425;BME280;15244;49.088;11.886;2024-02-15T09:54:55;96203.56;;;12.86;57.30
27425;BME280;15244;49.088;11.886;2024-02-15T09:59:57;96208.28;;;12.96;57.34
27425;BME280;15244;49.088;11.886;2024-02-15T10:04:59;96207.94;;;13.08;57.34
27425;BME280;15244;49.088;11.886;2024-02-15T10:10:17;96200.91;;;13.21;57.23
27425;BME280;15244;49.088;11.886;2024-02-15T10:15:28;96204.50;;;13.33;57.23
27425;BME280;15244;49.088;11.886;2024-02-15T10:20:34;96205.28;;;13.44;57.10
27425;BME280;15244;49.088;11.886;2024-02-15T10:25:40;96201.38;;;13.56;57.13
27425;BME280;15244;49.088;11.886;2024-02-15T10:30:43;96192.38;;;13.70;57.14
27425;BME280;15244;49.088;11.886;2024-02-15T10:36:05;96184.91;;;13.84;56.89
27425;BME280;15244;49.088;11.886;2024-02-15T10:41:10;96189.63;;;13.98;56.88
27425;BME280;15244;49.088;11.886;2024-02-15T10:46:25;96181.34;;;14.13;56.79
27425;BME280;15244;49.088;11.886;2024-02-15T10:51:28;96170.72;;;14.25;56.61
27425;BME280;15244;49.088;11.886;2024-02-15T10:56:36;96157.38;;;14.42;56.49
27425;BME280;15244;49.088;11.886;2024-02-15T11:01:42;96153.81;;;14.56;56.34
27425;BME280;15244;49.088;11.886;2024-02-15T11:06:49;96140.03;;;14.70;56.25
27425;BME280;15244;49.088;11.886;2024-02-15T11:11:58;96145.03;;;14.86;56.13
27425;BME280;15244;49.088;11.886;2024-02-15T11:17:05;96131.19;;;15.04;55.71
27425;BME280;15244;49.088;11.886;2024-02-15T11:22:14;96131.88;;;15.18;55.65
27425;BME280;15244;49.088;11.886;2024-02-15T11:27:29;96127.06;;;15.33;55.40
27425;BME280;15244;49.088;11.886;2024-02-15T11:32:34;96121.47;;;15.44;54.87
27425;BME280;15244;49.088;11.886;2024-02-15T11:43:00;96102.03;;;15.66;54.45
27425;BME280;15244;49.088;11.886;2024-02-15T11:48:11;96101.59;;;15.74;54.16
27425;BME280;15244;49.088;11.886;2024-02-15T11:53:15;96101.97;;;15.76;54.17
27425;BME280;15244;49.088;11.886;2024-02-15T11:58:21;96098.31;;;15.87;53.72
27425;BME280;15244;49.088;11.886;2024-02-15T12:03:30;96086.88;;;15.92;53.33
27425;BME280;15244;49.088;11.886;2024-02-15T12:09:04;96075.41;;;16.00;53.25
27425;BME280;15244;49.088;11.886;2024-02-15T12:14:25;96076.06;;;16.12;53.30
27425;BME280;15244;49.088;11.886;2024-02-15T12:19:47;96068.03;;;16.24;53.09
27425;BME280;15244;49.088;11.886;2024-02-15T12:24:53;96063.66;;;16.31;52.82
27425;BME280;15244;49.088;11.886;2024-02-15T12:29:56;96066.28;;;16.38;52.85
27425;BME280;15244;49.088;11.886;2024-02-15T12:35:13;96052.44;;;16.45;52.79
27425;BME280;15244;49.088;11.886;2024-02-15T12:40:19;96052.28;;;16.56;52.81
27425;BME280;15244;49.088;11.886;2024-02-15T12:45:26;96041.91;;;16.67;52.58
27425;BME280;15244;49.088;11.886;2024-02-15T12:50:32;96035.88;;;16.76;52.53
27425;BME280;15244;49.088;11.886;2024-02-15T12:55:36;96037.38;;;16.84;52.25
27425;BME280;15244;49.088;11.886;2024-02-15T13:00:39;96035.69;;;16.90;52.00
27425;BME280;15244;49.088;11.886;2024-02-15T13:05:42;96037.22;;;16.95;52.01
27425;BME280;15244;49.088;11.886;2024-02-15T13:10:46;96026.41;;;17.04;52.02
27425;BME280;15244;49.088;11.886;2024-02-15T13:15:48;96011.00;;;17.10;51.91
27425;BME280;15244;49.088;11.886;2024-02-15T13:20:53;96016.44;;;17.14;51.67
27425;BME280;15244;49.088;11.886;2024-02-15T13:25:55;96014.09;;;17.12;51.35
27425;BME280;15244;49.088;11.886;2024-02-15T13:30:59;95997.63;;;17.08;51.07
27425;BME280;15244;49.088;11.886;2024-02-15T13:36:00;96004.63;;;17.13;51.17
27425;BME280;15244;49.088;11.886;2024-02-15T13:41:03;95996.66;;;17.19;51.17
27425;BME280;15244;49.088;11.886;2024-02-15T13:46:05;96002.91;;;17.23;50.74
27425;BME280;15244;49.088;11.886;2024-02-15T13:51:07;96000.06;;;17.26;50.76
27425;BME280;15244;49.088;11.886;2024-02-15T13:56:10;95998.88;;;17.27;50.45
27425;BME280;15244;49.088;11.886;2024-02-15T14:01:12;95990.63;;;17.27;50.49
27425;BME280;15244;49.088;11.886;2024-02-15T14:06:17;95985.81;;;17.31;50.41
27425;BME280;15244;49.088;11.886;2024-02-15T14:11:20;95979.03;;;17.36;50.25
27425;BME280;15244;49.088;11.886;2024-02-15T14:16:23;95979.75;;;17.40;50.15
27425;BME280;15244;49.088;11.886;2024-02-15T14:21:26;95973.75;;;17.45;49.95
27425;BME280;15244;49.088;11.886;2024-02-15T14:26:31;95986.59;;;17.52;50.22
27425;BME280;15244;49.088;11.886;2024-02-15T14:31:33;95980.69;;;17.53;49.96
27425;BME280;15244;49.088;11.886;2024-02-15T14:36:53;95977.16;;;17.53;49.43
27425;BME280;15244;49.088;11.886;2024-02-15T14:41:57;95970.88;;;17.52;49.56
27425;BME280;15244;49.088;11.886;2024-02-15T14:46:59;95965.84;;;17.47;49.43
27425;BME280;15244;49.088;11.886;2024-02-15T14:52:02;95960.38;;;17.44;49.33
27425;BME280;15244;49.088;11.886;2024-02-15T14:57:05;95953.81;;;17.38;49.33
27425;BME280;15244;49.088;11.886;2024-02-15T15:02:09;95960.22;;;17.31;49.33
27425;BME280;15244;49.088;11.886;2024-02-15T15:07:14;95960.06;;;17.18;49.39
27425;BME280;15244;49.088;11.886;2024-02-15T15:12:36;95969.72;;;17.06;49.42
27425;BME280;15244;49.088;11.886;2024-02-15T15:17:39;95973.78;;;16.98;49.34
27425;BME280;15244;49.088;11.886;2024-02-15T15:22:43;95969.19;;;16.92;49.32
27425;BME280;15244;49.088;11.886;2024-02-15T15:27:46;95972.84;;;16.85;49.50
27425;BME280;15244;49.088;11.886;2024-02-15T15:32:49;95980.03;;;16.79;49.72
27425;BME280;15244;49.088;11.886;2024-02-15T15:37:53;95975.69;;;16.78;49.66
27425;BME280;15244;49.088;11.886;2024-02-15T15:42:56;95976.88;;;16.77;49.81
27425;BME280;15244;49.088;11.886;2024-02-15T15:47:58;95972.53;;;16.79;49.96
27425;BME280;15244;49.088;11.886;2024-02-15T15:53:03;95960.75;;;16.79;49.88
27425;BME280;15244;49.088;11.886;2024-02-15T15:58:05;95958.38;;;16.77;49.72
27425;BME280;15244;49.088;11.886;2024-02-15T16:03:07;95947.84;;;16.72;49.69
27425;BME280;15244;49.088;11.886;2024-02-15T16:08:11;95958.19;;;16.64;49.57
27425;BME280;15244;49.088;11.886;2024-02-15T16:13:13;95957.53;;;16.57;49.35
27425;BME280;15244;49.088;11.886;2024-02-15T16:18:15;95956.09;;;16.49;49.46
27425;BME280;15244;49.088;11.886;2024-02-15T16:23:17;95956.59;;;16.40;49.29
27425;BME280;15244;49.088;11.886;2024-02-15T16:28:19;95962.66;;;16.28;49.28
27425;BME280;15244;49.088;11.886;2024-02-15T16:33:24;95960.84;;;16.17;49.37
27425;BME280;15244;49.088;11.886;2024-02-15T16:38:26;95957.03;;;16.08;49.62
27425;BME280;15244;49.088;11.886;2024-02-15T16:43:29;95961.09;;;15.99;49.42
27425;BME280;15244;49.088;11.886;2024-02-15T16:48:30;95952.59;;;15.90;49.57
27425;BME280;15244;49.088;11.886;2024-02-15T16:53:33;95947.16;;;15.83;49.71
27425;BME280;15244;49.088;11.886;2024-02-15T16:58:35;95954.34;;;15.73;49.82
27425;BME280;15244;49.088;11.886;2024-02-15T17:03:37;95952.84;;;15.65;49.88
27425;BME280;15244;49.088;11.886;2024-02-15T17:08:39;95946.28;;;15.55;49.92
27425;BME280;15244;49.088;11.886;2024-02-15T17:13:42;95940.88;;;15.48;50.29
27425;BME280;15244;49.088;11.886;2024-02-15T17:18:45;95940.19;;;15.41;50.21
27425;BME280;15244;49.088;11.886;2024-02-15T17:23:50;95936.34;;;15.31;50.38
27425;BME280;15244;49.088;11.886;2024-02-15T17:28:52;95946.63;;;15.23;50.46
27425;BME280;15244;49.088;11.886;2024-02-15T17:33:55;95955.72;;;15.16;50.65
27425;BME280;15244;49.088;11.886;2024-02-15T17:38:57;95953.84;;;15.10;50.79
27425;BME280;15244;49.088;11.886;2024-02-15T17:44:00;95959.00;;;15.04;50.75
27425;BME280;15244;49.088;11.886;2024-02-15T17:49:02;95950.81;;;14.97;50.94
27425;BME280;15244;49.088;11.886;2024-02-15T17:54:04;95951.28;;;14.92;50.96
27425;BME280;15244;49.088;11.886;2024-02-15T17:59:07;95952.88;;;14.86;50.90
27425;BME280;15244;49.088;11.886;2024-02-15T18:04:12;95947.03;;;14.80;51.19
27425;BME280;15244;49.088;11.886;2024-02-15T18:09:14;95950.22;;;14.75;51.15
27425;BME280;15244;49.088;11.886;2024-02-15T18:14:16;95950.66;;;14.70;51.20
27425;BME280;15244;49.088;11.886;2024-02-15T18:19:18;95949.13;;;14.65;51.32
27425;BME280;15244;49.088;11.886;2024-02-15T18:24:21;95945.66;;;14.61;51.47
27425;BME280;15244;49.088;11.886;2024-02-15T18:29:23;95937.84;;;14.56;51.43
27425;BME280;15244;49.088;11.886;2024-02-15T18:34:25;95945.28;;;14.52;51.57
27425;BME280;15244;49.088;11.886;2024-02-15T18:39:27;95935.13;;;14.49;51.74
27425;BME280;15244;49.088;11.886;2024-02-15T18:44:30;95933.59;;;14.44;51.91
27425;BME280;15244;49.088;11.886;2024-02-15T18:49:35;95942.63;;;14.41;51.72
27425;BME280;15244;49.088;11.886;2024-02-15T18:54:44;95933.63;;;14.37;51.96
27425;BME280;15244;49.088;11.886;2024-02-15T18:59:47;95925.44;;;14.34;51.82
27425;BME280;15244;49.088;11.886;2024-02-15T19:04:49;95918.44;;;14.29;51.94
27425;BME280;15244;49.088;11.886;2024-02-15T19:09:51;95912.16;;;14.25;52.20
27425;BME280;15244;49.088;11.886;2024-02-15T19:14:53;95911.00;;;14.22;52.22
27425;BME280;15244;49.088;11.886;2024-02-15T19:19:56;95911.44;;;14.17;52.24
27425;BME280;15244;49.088;11.886;2024-02-15T19:24:58;95898.94;;;14.13;52.32
27425;BME280;15244;49.088;11.886;2024-02-15T19:30:02;95900.53;;;14.10;52.08
27425;BME280;15244;49.088;11.886;2024-02-15T19:35:05;95883.34;;;14.06;52.46
27425;BME280;15244;49.088;11.886;2024-02-15T19:40:09;95878.66;;;13.99;52.44
27425;BME280;15244;49.088;11.886;2024-02-15T19:45:21;95886.16;;;13.95;52.57
27425;BME280;15244;49.088;11.886;2024-02-15T19:50:23;95878.72;;;13.92;52.73
27425;BME280;15244;49.088;11.886;2024-02-15T19:55:29;95879.53;;;13.89;52.79
27425;BME280;15244;49.088;11.886;2024-02-15T20:00:32;95876.38;;;13.87;52.72
27425;BME280;15244;49.088;11.886;2024-02-15T20:05:34;95879.56;;;13.82;52.50
27425;BME280;15244;49.088;11.886;2024-02-15T20:10:37;95875.28;;;13.77;52.64
27425;BME280;15244;49.088;11.886;2024-02-15T20:15:38;95881.97;;;13.73;53.00
27425;BME280;15244;49.088;11.886;2024-02-15T20:20:40;95882.78;;;13.66;52.71
27425;BME280;15244;49.088;11.886;2024-02-15T20:25:42;95880.47;;;13.61;52.81
27425;BME280;15244;49.088;11.886;2024-02-15T20:30:46;95880.50;;;13.57;52.96
27425;BME280;15244;49.088;11.886;2024-02-15T20:35:47;95881.69;;;13.53;53.05
27425;BME280;15244;49.088;11.886;2024-02-15T20:40:49;95886.00;;;13.50;53.17
27425;BME280;15244;49.088;11.886;2024-02-15T20:45:51;95888.38;;;13.41;52.68
27425;BME280;15244;49.088;11.886;2024-02-15T20:50:54;95880.59;;;13.32;52.70
27425;BME280;15244;49.088;11.886;2024-02-15T20:55:56;95875.88;;;13.26;52.79
27425;BME280;15244;49.088;11.886;2024-02-15T21:00:58;95873.97;;;13.22;53.17
27425;BME280;15244;49.088;11.886;2024-02-15T21:06:00;95877.50;;;13.19;52.94
27425;BME280;15244;49.088;11.886;2024-02-15T21:11:02;95872.00;;;13.16;53.21
27425;BME280;15244;49.088;11.886;2024-02-15T21:16:04;95869.31;;;13.12;53.25
27425;BME280;15244;49.088;11.886;2024-02-15T21:21:12;95857.19;;;13.10;53.16
27425;BME280;15244;49.088;11.886;2024-02-15T21:26:14;95855.63;;;13.05;53.35
27425;BME280;15244;49.088;11.886;2024-02-15T21:31:17;95863.44;;;13.03;53.39
27425;BME280;15244;49.088;11.886;2024-02-15T21:36:19;95851.34;;;13.00;53.41
27425;BME280;15244;49.088;11.886;2024-02-15T21:41:22;95853.31;;;12.96;53.64
27425;BME280;15244;49.088;11.886;2024-02-15T21:46:24;95845.88;;;12.93;53.42
27425;BME280;15244;49.088;11.886;2024-02-15T21:51:26;95843.97;;;12.87;53.49
27425;BME280;15244;49.088;11.886;2024-02-15T21:56:29;95847.47;;;12.84;53.51
27425;BME280;15244;49.088;11.886;2024-02-15T22:01:31;95851.78;;;12.81;53.64
27425;BME280;15244;49.088;11.886;2024-02-15T22:06:33;95844.78;;;12.76;53.61
27425;BME280;15244;49.088;11.886;2024-02-15T22:11:35;95838.53;;;12.72;53.85
27425;BME280;15244;49.088;11.886;2024-02-15T22:16:37;95835.00;;;12.68;53.77
27425;BME280;15244;49.088;11.886;2024-02-15T22:21:39;95834.25;;;12.64;53.89
27425;BME280;15244;49.088;11.886;2024-02-15T22:26:41;95842.44;;;12.61;53.73
27425;BME280;15244;49.088;11.886;2024-02-15T22:31:44;95832.28;;;12.57;53.69
27425;BME280;15244;49.088;11.886;2024-02-15T22:36:46;95840.91;;;12.52;53.82
27425;BME280;15244;49.088;11.886;2024-02-15T22:41:48;95834.25;;;12.50;53.76
27425;BME280;15244;49.088;11.886;2024-02-15T22:46:51;95834.28;;;12.46;53.95
27425;BME280;15244;49.088;11.886;2024-02-15T22:51:55;95829.22;;;12.41;53.87
27425;BME280;15244;49.088;11.886;2024-02-15T22:56:56;95827.25;;;12.38;53.86
27425;BME280;15244;49.088;11.886;2024-02-15T23:01:58;95825.28;;;12.35;54.01
27425;BME280;15244;49.088;11.886;2024-02-15T23:07:02;95821.00;;;12.30;53.95
27425;BME280;15244;49.088;11.886;2024-02-15T23:12:06;95833.13;;;12.26;54.12
27425;BME280;15244;49.088;11.886;2024-02-15T23:17:08;95832.34;;;12.22;54.01
27425;BME280;15244;49.088;11.886;2024-02-15T23:22:10;95826.09;;;12.18;54.16
27425;BME280;15244;49.088;11.886;2024-02-15T23:27:15;95824.13;;;12.14;54.33
27425;BME280;15244;49.088;11.886;2024-02-15T23:32:17;95814.00;;;12.11;54.25
27425;BME280;15244;49.088;11.886;2024-02-15T23:37:19;95805.41;;;12.09;54.12
27425;BME280;15244;49.088;11.886;2024-02-15T23:42:39;95804.66;;;12.05;54.19
27425;BME280;15244;49.088;11.886;2024-02-15T23:47:41;95813.59;;;12.02;54.46
27425;BME280;15244;49.088;11.886;2024-02-15T23:52:45;95806.59;;;12.01;54.25
27425;BME280;15244;49.088;11.886;2024-02-15T23:57:47;95812.84;;;11.98;54.48
